MUVR/VRA METAR and TAF weather

Enter ICAO airport designator
Station Type Date Time Source
MUVR METAR 2022/06/27 08:50 UTC NOAA

MUVR 270850Z 20004KT 170V230 9000 FEW030 22/22 Q1015


Station Type Date Time Source
MUVR Decoded METAR 2022/06/27 08:50 UTC NOAA

Varadero, Matanzas, Cuba (MUVR) 23-08N 081-17W 3M
Jun 27, 2022 - 04:50 AM EDT / 2022.06.27 0850 UTC
Wind: from the SSW (200 degrees) at 5 MPH (4 KT) (direction variable):0
Visibility: 5 mile(s):0
Sky conditions: mostly clear
Temperature: 71 F (22 C)
Dew Point: 71 F (22 C)
Relative Humidity: 100%
Pressure (altimeter): 29.97 in. Hg (1015 hPa)
ob: MUVR 270850Z 20004KT 170V230 9000 FEW030 22/22 Q1015
cycle: 9

Station Type Date Time Source
MUVR TAF 2022/06/27 06:03 UTC NOAA

TAF MUVR 270500Z 2706/2806 VRB03KT 9000 SCT020
BECMG 2714/2715 09010KT PROB30
TEMPO 2719/2802 3000 TSRA SCT018CB BKN020
BECMG 2803/2805 VRB03KT FEW020

Example: see airport list